Time;durP1;ratioP1;P1;durP2;ratioP2;P2;SDS_P1;SDS_P2;PMS_P1;PMS_P2;Temp;Humidity;BMP_temperature;BMP_pressure;BME280_temperature;BME280_humidity;BME280_pressure;Samples;Min_cycle;Max_cycle;Signal;HPM_P1;HPM_P2
2021/12/12 00:00:03;;;;;;;51.75;21.63;;;;;;;;;;5036992;28;20029;-75
2021/12/12 00:02:49;;;;;;;60.05;23.15;;;;;;;;;;5020962;28;20500;-76
2021/12/12 00:05:17;;;;;;;53.85;21.50;;;;;;;;;;5036421;28;20374;-76
2021/12/12 00:07:43;;;;;;;57.97;24.15;;;;;;;;;;5019029;28;20083;-75
2021/12/12 00:10:13;;;;;;;60.97;24.38;;;;;;;;;;5035483;28;20123;-75
2021/12/12 00:12:43;;;;;;;49.30;21.17;;;;;;;;;;5035578;28;20041;-75
2021/12/12 00:15:12;;;;;;;54.83;21.73;;;;;;;;;;5019094;28;20060;-75
2021/12/12 00:17:38;;;;;;;52.63;23.35;;;;;;;;;;5044164;28;20452;-75
2021/12/12 00:20:05;;;;;;;47.55;20.05;;;;;;;;;;5030427;28;20080;-75
2021/12/12 00:22:32;;;;;;;58.40;23.45;;;;;;;;;;5030551;28;20041;-75
2021/12/12 00:24:58;;;;;;;62.70;23.92;;;;;;;;;;5030388;28;20356;-75
2021/12/12 00:27:24;;;;;;;63.72;24.48;;;;;;;;;;5030473;28;20442;-75
2021/12/12 00:29:51;;;;;;;59.65;22.92;;;;;;;;;;5030154;28;20033;-74
2021/12/12 00:32:18;;;;;;;53.92;21.48;;;;;;;;;;5030886;28;20051;-76
2021/12/12 00:34:47;;;;;;;59.20;24.58;;;;;;;;;;5030642;28;20192;-75
2021/12/12 00:37:14;;;;;;;52.47;22.45;;;;;;;;;;5047016;28;20171;-75
2021/12/12 00:39:41;;;;;;;53.25;21.63;;;;;;;;;;5046881;28;20045;-75
2021/12/12 00:42:10;;;;;;;54.83;23.40;;;;;;;;;;5029674;28;20128;-75
2021/12/12 00:44:38;;;;;;;53.78;20.60;;;;;;;;;;5030539;28;20040;-75
2021/12/12 00:47:07;;;;;;;52.78;22.02;;;;;;;;;;5030167;28;20119;-74
2021/12/12 00:49:35;;;;;;;60.15;23.08;;;;;;;;;;5046908;28;20041;-74
2021/12/12 00:52:01;;;;;;;49.15;21.40;;;;;;;;;;5030167;28;20055;-75
2021/12/12 00:54:31;;;;;;;59.55;22.35;;;;;;;;;;5046988;28;20080;-74
2021/12/12 00:56:58;;;;;;;54.72;21.48;;;;;;;;;;5030526;28;20041;-76
2021/12/12 00:59:24;;;;;;;63.60;23.80;;;;;;;;;;5030293;28;20048;-75
2021/12/12 01:01:51;;;;;;;43.50;20.33;;;;;;;;;;5046741;28;20052;-74
2021/12/12 01:04:20;;;;;;;51.95;19.65;;;;;;;;;;5046759;28;20040;-74
2021/12/12 01:06:48;;;;;;;44.20;19.25;;;;;;;;;;5046514;28;20109;-75
2021/12/12 01:09:17;;;;;;;53.03;21.45;;;;;;;;;;5029939;28;20052;-76
2021/12/12 01:11:45;;;;;;;55.08;21.63;;;;;;;;;;5046425;28;20048;-74
2021/12/12 01:14:13;;;;;;;55.88;21.50;;;;;;;;;;5030112;28;20131;-76
2021/12/12 01:16:45;;;;;;;52.20;21.48;;;;;;;;;;5030063;28;20048;-74
2021/12/12 01:19:13;;;;;;;47.53;21.20;;;;;;;;;;5033961;28;20051;-76
2021/12/12 01:21:43;;;;;;;53.88;20.83;;;;;;;;;;5034139;28;20045;-74
2021/12/12 01:24:10;;;;;;;54.75;21.85;;;;;;;;;;5033657;28;20145;-75
2021/12/12 01:26:37;;;;;;;53.92;20.23;;;;;;;;;;5033809;28;20455;-74
2021/12/12 01:29:03;;;;;;;51.38;22.23;;;;;;;;;;5050484;28;20489;-76
2021/12/12 01:31:32;;;;;;;48.63;19.88;;;;;;;;;;5050122;28;20033;-75
2021/12/12 01:34:10;;;;;;;45.58;20.00;;;;;;;;;;5036365;28;20386;-75
2021/12/12 01:36:47;;;;;;;51.53;21.85;;;;;;;;;;5053571;28;20463;-76
2021/12/12 01:39:14;;;;;;;49.90;21.40;;;;;;;;;;5047481;28;20091;-76
2021/12/12 01:41:52;;;;;;;51.08;21.00;;;;;;;;;;5025721;28;20033;-75
2021/12/12 01:44:22;;;;;;;42.03;17.10;;;;;;;;;;5044084;28;20091;-76
2021/12/12 01:46:51;;;;;;;46.25;19.02;;;;;;;;;;5042820;28;20037;-75
2021/12/12 01:49:19;;;;;;;42.88;18.45;;;;;;;;;;5043118;28;20056;-76
2021/12/12 01:51:46;;;;;;;46.72;19.67;;;;;;;;;;5027722;28;20036;-76
2021/12/12 01:54:14;;;;;;;45.97;19.25;;;;;;;;;;5043314;28;20041;-75
2021/12/12 01:56:50;;;;;;;48.33;19.83;;;;;;;;;;5042046;28;20120;-74
2021/12/12 01:59:16;;;;;;;43.35;20.55;;;;;;;;;;5041423;28;20044;-74
2021/12/12 02:01:48;;;;;;;39.20;17.15;;;;;;;;;;5052867;28;20048;-75
2021/12/12 02:04:16;;;;;;;49.45;18.83;;;;;;;;;;5036788;28;20095;-75
2021/12/12 02:06:46;;;;;;;46.92;19.98;;;;;;;;;;5053334;28;20041;-75
2021/12/12 02:09:12;;;;;;;50.03;20.50;;;;;;;;;;5053291;28;20033;-76
2021/12/12 02:11:39;;;;;;;48.13;19.23;;;;;;;;;;5053384;28;20044;-75
2021/12/12 02:14:10;;;;;;;46.15;18.05;;;;;;;;;;5036647;28;20175;-75
2021/12/12 02:16:39;;;;;;;44.15;18.63;;;;;;;;;;5053357;28;20044;-76
2021/12/12 02:19:05;;;;;;;52.75;20.50;;;;;;;;;;5037106;28;20136;-76
2021/12/12 02:21:38;;;;;;;43.50;18.23;;;;;;;;;;5036356;28;20139;-75
2021/12/12 02:37:37;;;;;;;34.78;15.55;;;;;;;;;;5052809;28;20492;-74
2021/12/12 02:40:07;;;;;;;40.17;16.25;;;;;;;;;;5052590;28;20045;-75
2021/12/12 02:42:33;;;;;;;37.17;17.65;;;;;;;;;;5052666;28;20037;-75
2021/12/12 02:45:01;;;;;;;43.03;18.08;;;;;;;;;;5052464;28;20033;-74
2021/12/12 02:47:34;;;;;;;34.63;16.17;;;;;;;;;;5052499;28;20041;-75
2021/12/12 02:50:13;;;;;;;38.33;17.70;;;;;;;;;;5052581;28;20127;-75
2021/12/12 02:52:44;;;;;;;43.88;18.13;;;;;;;;;;5052488;28;20041;-76
2021/12/12 02:55:16;;;;;;;37.42;18.10;;;;;;;;;;5052503;28;20135;-76
2021/12/12 02:57:42;;;;;;;36.53;14.73;;;;;;;;;;5035710;28;20132;-74
2021/12/12 03:00:10;;;;;;;39.10;16.85;;;;;;;;;;5035926;28;20072;-75
2021/12/12 03:02:45;;;;;;;37.13;15.77;;;;;;;;;;5052217;28;20036;-74
2021/12/12 03:05:11;;;;;;;40.65;16.05;;;;;;;;;;5035635;28;20052;-75
2021/12/12 03:07:37;;;;;;;47.05;17.38;;;;;;;;;;5035633;28;20048;-76
2021/12/12 03:10:04;;;;;;;35.03;15.57;;;;;;;;;;5035409;28;20033;-75
2021/12/12 03:12:33;;;;;;;40.88;17.27;;;;;;;;;;5035539;28;20051;-75
2021/12/12 03:15:11;;;;;;;37.67;16.27;;;;;;;;;;5052139;28;20048;-74
2021/12/12 03:17:38;;;;;;;40.53;16.35;;;;;;;;;;5052280;28;20040;-75
2021/12/12 03:20:10;;;;;;;34.92;16.70;;;;;;;;;;5052056;28;20037;-75
2021/12/12 03:22:36;;;;;;;28.90;14.43;;;;;;;;;;5052139;28;20044;-74
2021/12/12 03:25:02;;;;;;;37.83;15.38;;;;;;;;;;5034944;28;20056;-75
2021/12/12 03:27:28;;;;;;;32.85;15.80;;;;;;;;;;5052231;28;20076;-75
2021/12/12 03:29:54;;;;;;;27.40;13.40;;;;;;;;;;5035386;28;20095;-73
2021/12/12 03:32:21;;;;;;;35.42;15.02;;;;;;;;;;5051943;28;20510;-74
2021/12/12 03:34:52;;;;;;;28.80;15.10;;;;;;;;;;5052075;28;20056;-75
2021/12/12 03:37:18;;;;;;;;;;;;;;;;;;5035619;28;20127;-74
2021/12/12 03:39:46;;;;;;;31.83;12.85;;;;;;;;;;5051670;28;20011;-75
2021/12/12 03:42:14;;;;;;;33.58;13.85;;;;;;;;;;5034850;28;20385;-74
2021/12/12 03:44:40;;;;;;;29.15;12.55;;;;;;;;;;5034552;28;20044;-75
2021/12/12 03:47:14;;;;;;;23.25;10.80;;;;;;;;;;5051512;28;20041;-75
2021/12/12 03:49:40;;;;;;;25.25;13.75;;;;;;;;;;5051278;28;20041;-75
2021/12/12 03:52:08;;;;;;;30.92;13.85;;;;;;;;;;5034904;28;20044;-75
2021/12/12 03:54:34;;;;;;;31.75;13.13;;;;;;;;;;5034735;28;20072;-74
2021/12/12 03:57:01;;;;;;;21.48;10.43;;;;;;;;;;5034608;28;20040;-74
2021/12/12 03:59:27;;;;;;;31.23;12.68;;;;;;;;;;5051507;28;20090;-74
2021/12/12 04:01:53;;;;;;;30.63;13.13;;;;;;;;;;5051017;28;20500;-75
2021/12/12 04:04:21;;;;;;;28.98;11.88;;;;;;;;;;5034680;28;20041;-73
2021/12/12 04:06:48;;;;;;;22.48;9.55;;;;;;;;;;5034825;28;20037;-75
2021/12/12 04:09:16;;;;;;;24.10;11.13;;;;;;;;;;5051074;28;20075;-74
2021/12/12 04:11:45;;;;;;;32.95;10.00;;;;;;;;;;5051256;28;20060;-75
2021/12/12 04:14:11;;;;;;;20.98;10.80;;;;;;;;;;5034526;28;20068;-76
2021/12/12 04:16:38;;;;;;;20.38;9.55;;;;;;;;;;5051099;28;20045;-74
2021/12/12 04:19:05;;;;;;;21.83;9.77;;;;;;;;;;5051067;28;20516;-75
2021/12/12 04:21:31;;;;;;;21.77;10.18;;;;;;;;;;5050873;28;20080;-75
2021/12/12 04:23:58;;;;;;;21.50;10.15;;;;;;;;;;5050853;28;20095;-73
2021/12/12 04:26:32;;;;;;;22.77;10.80;;;;;;;;;;5034309;28;20485;-76
2021/12/12 04:29:05;;;;;;;21.17;10.75;;;;;;;;;;5034099;28;20127;-75
2021/12/12 04:31:31;;;;;;;19.38;9.43;;;;;;;;;;5034195;28;20045;-74
2021/12/12 04:33:59;;;;;;;24.13;11.15;;;;;;;;;;5051174;28;20135;-75
2021/12/12 04:36:30;;;;;;;20.42;10.50;;;;;;;;;;5034361;28;20090;-75
2021/12/12 04:39:02;;;;;;;19.60;10.13;;;;;;;;;;5050749;28;20067;-74
2021/12/12 04:41:28;;;;;;;20.45;8.30;;;;;;;;;;5033804;28;20041;-74
2021/12/12 04:43:54;;;;;;;21.27;10.00;;;;;;;;;;5050450;28;20036;-75
2021/12/12 04:46:25;;;;;;;22.27;10.60;;;;;;;;;;5050163;28;20033;-75
2021/12/12 04:51:50;;;;;;;21.25;11.32;;;;;;;;;;5050040;28;20053;-75
2021/12/12 04:54:28;;;;;;;16.95;8.27;;;;;;;;;;5033883;28;20041;-74
2021/12/12 04:56:56;;;;;;;16.92;7.70;;;;;;;;;;5050173;28;20409;-73
2021/12/12 04:59:29;;;;;;;18.70;9.68;;;;;;;;;;5050146;28;20132;-75
2021/12/12 05:01:57;;;;;;;18.38;9.57;;;;;;;;;;5049981;28;20055;-74
2021/12/12 05:04:47;;;;;;;14.50;8.52;;;;;;;;;;5050156;28;20045;-74
2021/12/12 05:07:31;;;;;;;20.58;10.93;;;;;;;;;;5020910;28;20052;-75
2021/12/12 05:10:08;;;;;;;11.88;7.22;;;;;;;;;;5033596;28;20047;-74
2021/12/12 05:12:43;;;;;;;14.93;8.25;;;;;;;;;;5049984;28;20091;-74
2021/12/12 05:15:14;;;;;;;14.52;7.22;;;;;;;;;;5050060;28;20366;-75
2021/12/12 05:17:45;;;;;;;14.75;8.07;;;;;;;;;;5050143;28;20033;-74
2021/12/12 05:20:14;;;;;;;16.52;7.55;;;;;;;;;;5049937;28;20102;-73
2021/12/12 05:22:43;;;;;;;16.23;7.43;;;;;;;;;;5050066;28;20032;-75
2021/12/12 05:25:14;;;;;;;14.52;7.30;;;;;;;;;;5050243;28;20461;-75
2021/12/12 05:27:40;;;;;;;14.15;8.43;;;;;;;;;;5050211;28;20268;-73
2021/12/12 05:30:10;;;;;;;15.02;7.38;;;;;;;;;;5050127;28;20037;-75
2021/12/12 05:32:37;;;;;;;11.45;7.10;;;;;;;;;;5049784;28;20037;-73
2021/12/12 05:35:05;;;;;;;14.05;6.70;;;;;;;;;;5049786;28;20102;-75
2021/12/12 05:37:31;;;;;;;9.88;6.60;;;;;;;;;;5050129;28;20041;-74
2021/12/12 05:40:00;;;;;;;13.43;7.88;;;;;;;;;;5050000;28;20071;-75
2021/12/12 05:42:26;;;;;;;14.95;7.45;;;;;;;;;;5049705;28;20041;-75
2021/12/12 05:44:53;;;;;;;11.88;6.47;;;;;;;;;;5049739;28;20171;-74
2021/12/12 05:47:19;;;;;;;12.25;6.50;;;;;;;;;;5049665;28;20041;-74
2021/12/12 05:49:46;;;;;;;12.77;7.72;;;;;;;;;;5049705;28;20039;-74
2021/12/12 05:52:14;;;;;;;24.17;7.25;;;;;;;;;;5049911;28;20552;-74
2021/12/12 05:54:40;;;;;;;14.35;7.70;;;;;;;;;;5049771;28;20049;-75
2021/12/12 05:57:09;;;;;;;11.10;6.28;;;;;;;;;;5050016;28;20094;-74
2021/12/12 05:59:35;;;;;;;9.55;6.18;;;;;;;;;;5049574;28;20049;-76
2021/12/12 06:02:04;;;;;;;12.85;8.27;;;;;;;;;;5049572;28;20500;-75
2021/12/12 06:04:30;;;;;;;18.65;7.15;;;;;;;;;;5052960;28;20033;-75
2021/12/12 06:06:56;;;;;;;13.75;6.38;;;;;;;;;;5053221;28;20037;-75
2021/12/12 06:09:23;;;;;;;7.28;5.22;;;;;;;;;;5053174;28;20039;-75
2021/12/12 06:11:52;;;;;;;9.45;5.55;;;;;;;;;;5053731;28;20073;-74
2021/12/12 06:14:18;;;;;;;12.45;7.10;;;;;;;;;;5053421;28;20080;-73
2021/12/12 06:16:45;;;;;;;11.88;7.07;;;;;;;;;;5053102;28;20127;-74
2021/12/12 06:19:13;;;;;;;10.35;6.43;;;;;;;;;;5053084;28;20041;-73
2021/12/12 06:21:39;;;;;;;13.23;6.15;;;;;;;;;;5052885;28;20064;-74
2021/12/12 06:24:06;;;;;;;12.38;6.18;;;;;;;;;;5052958;28;20063;-74
2021/12/12 06:26:32;;;;;;;8.43;5.43;;;;;;;;;;5053171;28;20048;-75
2021/12/12 06:28:58;;;;;;;8.15;6.38;;;;;;;;;;5053328;28;20087;-75
2021/12/12 06:31:24;;;;;;;12.07;5.88;;;;;;;;;;5052863;28;20044;-74
2021/12/12 06:33:50;;;;;;;13.43;5.70;;;;;;;;;;5053137;28;20124;-75
2021/12/12 06:36:16;;;;;;;12.95;6.68;;;;;;;;;;5053091;28;20044;-74
2021/12/12 06:38:44;;;;;;;9.45;5.68;;;;;;;;;;5053276;28;20048;-74
2021/12/12 06:41:11;;;;;;;11.27;5.97;;;;;;;;;;5052751;28;20036;-75
2021/12/12 06:43:37;;;;;;;9.32;6.03;;;;;;;;;;5052757;28;20037;-73
2021/12/12 06:46:05;;;;;;;7.82;5.53;;;;;;;;;;5052869;28;20124;-75
2021/12/12 06:48:31;;;;;;;9.77;5.78;;;;;;;;;;5052813;28;20095;-75
2021/12/12 06:50:57;;;;;;;9.43;5.78;;;;;;;;;;5052466;28;20049;-76
2021/12/12 06:53:24;;;;;;;11.20;5.78;;;;;;;;;;5052470;28;20485;-74
2021/12/12 06:55:51;;;;;;;9.32;5.18;;;;;;;;;;5052549;28;20045;-76
2021/12/12 06:58:18;;;;;;;10.52;6.25;;;;;;;;;;5052475;28;20467;-74
2021/12/12 07:00:46;;;;;;;14.13;6.40;;;;;;;;;;5052311;28;20045;-75
2021/12/12 07:03:13;;;;;;;9.35;5.72;;;;;;;;;;5052340;28;20128;-72
2021/12/12 07:05:39;;;;;;;9.45;6.47;;;;;;;;;;5052583;28;20037;-75
2021/12/12 07:08:05;;;;;;;9.07;6.10;;;;;;;;;;5052354;28;20090;-74
2021/12/12 07:10:32;;;;;;;10.30;6.53;;;;;;;;;;5052164;28;20044;-74
2021/12/12 07:12:59;;;;;;;12.73;6.68;;;;;;;;;;5051957;28;20128;-74
2021/12/12 07:15:40;;;;;;;8.80;5.65;;;;;;;;;;5051657;28;20495;-74
2021/12/12 07:18:10;;;;;;;9.02;5.55;;;;;;;;;;5051998;28;20045;-74
2021/12/12 07:20:36;;;;;;;9.40;6.05;;;;;;;;;;5051790;28;20048;-74
2021/12/12 07:23:06;;;;;;;12.23;6.15;;;;;;;;;;5054835;28;20049;-74
2021/12/12 07:25:33;;;;;;;10.07;5.28;;;;;;;;;;5038669;28;20047;-75
2021/12/12 07:28:00;;;;;;;9.90;6.15;;;;;;;;;;5038408;28;20047;-74
2021/12/12 07:30:26;;;;;;;9.43;5.43;;;;;;;;;;5038514;28;20059;-75
2021/12/12 07:32:53;;;;;;;10.00;5.60;;;;;;;;;;5055234;28;20040;-74
2021/12/12 07:35:19;;;;;;;10.15;5.45;;;;;;;;;;5038253;28;20404;-73
2021/12/12 07:37:45;;;;;;;9.25;5.35;;;;;;;;;;5038386;28;20044;-75
2021/12/12 07:40:12;;;;;;;8.20;4.80;;;;;;;;;;5038987;28;20487;-74
2021/12/12 07:42:38;;;;;;;8.52;5.20;;;;;;;;;;5037900;28;20032;-75
2021/12/12 07:45:05;;;;;;;11.05;5.75;;;;;;;;;;5054204;28;20072;-73
2021/12/12 07:47:31;;;;;;;8.95;4.97;;;;;;;;;;5038147;28;20048;-75
2021/12/12 07:49:57;;;;;;;9.73;4.88;;;;;;;;;;5037937;28;20068;-74
2021/12/12 07:52:25;;;;;;;10.90;5.75;;;;;;;;;;5054678;28;20089;-73
2021/12/12 07:54:52;;;;;;;9.18;5.43;;;;;;;;;;5037948;28;20040;-76
2021/12/12 07:57:19;;;;;;;9.63;5.50;;;;;;;;;;5037948;28;20040;-75
2021/12/12 07:59:45;;;;;;;10.57;5.40;;;;;;;;;;5038238;28;20101;-75
2021/12/12 08:02:12;;;;;;;9.38;5.75;;;;;;;;;;5054937;28;20131;-73
2021/12/12 08:04:38;;;;;;;11.95;6.28;;;;;;;;;;5038380;28;20039;-75
2021/12/12 08:07:07;;;;;;;10.48;5.82;;;;;;;;;;5038064;28;20041;-76
2021/12/12 08:09:34;;;;;;;12.32;6.43;;;;;;;;;;5037974;28;20043;-76
2021/12/12 08:12:00;;;;;;;10.80;6.20;;;;;;;;;;5034896;28;20543;-73
2021/12/12 08:14:27;;;;;;;10.27;6.40;;;;;;;;;;5034313;28;20052;-74
2021/12/12 08:16:54;;;;;;;11.80;6.90;;;;;;;;;;5034086;28;20082;-75
2021/12/12 08:19:21;;;;;;;11.43;6.47;;;;;;;;;;5034138;28;20044;-74
2021/12/12 08:21:48;;;;;;;13.93;6.47;;;;;;;;;;5050318;28;20055;-76
2021/12/12 08:24:15;;;;;;;9.57;6.18;;;;;;;;;;5050753;28;20059;-73
2021/12/12 08:26:42;;;;;;;10.02;6.05;;;;;;;;;;5049764;28;20037;-75
2021/12/12 08:29:09;;;;;;;11.32;6.00;;;;;;;;;;5027606;28;20032;-73
2021/12/12 08:31:36;;;;;;;9.98;6.03;;;;;;;;;;5040438;28;20040;-74
2021/12/12 08:34:04;;;;;;;11.88;6.43;;;;;;;;;;5022427;28;20049;-73
2021/12/12 08:36:30;;;;;;;10.98;5.43;;;;;;;;;;5022108;28;20510;-74
2021/12/12 08:38:56;;;;;;;11.30;5.53;;;;;;;;;;5040160;28;20063;-75
2021/12/12 08:41:22;;;;;;;12.60;6.60;;;;;;;;;;5021808;28;20479;-75
2021/12/12 08:43:48;;;;;;;12.27;6.18;;;;;;;;;;5021966;28;20040;-74
2021/12/12 08:46:15;;;;;;;11.05;6.13;;;;;;;;;;5040057;28;20480;-75
2021/12/12 08:48:44;;;;;;;11.95;6.10;;;;;;;;;;5038464;28;20060;-75
2021/12/12 08:51:12;;;;;;;11.68;6.53;;;;;;;;;;5022133;28;20555;-75
2021/12/12 08:53:39;;;;;;;13.15;6.25;;;;;;;;;;5037411;28;20048;-76
2021/12/12 08:56:06;;;;;;;12.07;6.22;;;;;;;;;;5022164;28;20098;-75
2021/12/12 08:58:33;;;;;;;12.30;6.35;;;;;;;;;;5040040;28;20048;-75
2021/12/12 09:01:05;;;;;;;13.93;6.35;;;;;;;;;;5037880;28;20045;-75
2021/12/12 09:03:57;;;;;;;12.52;6.55;;;;;;;;;;5021666;28;20079;-75
2021/12/12 09:06:29;;;;;;;12.68;6.25;;;;;;;;;;5031186;28;20045;-75
2021/12/12 09:08:55;;;;;;;15.73;8.00;;;;;;;;;;5029581;28;20037;-75
2021/12/12 09:11:24;;;;;;;12.50;7.35;;;;;;;;;;5029940;28;20060;-73
2021/12/12 09:13:53;;;;;;;12.98;6.63;;;;;;;;;;5013201;28;20489;-75
2021/12/12 09:16:29;;;;;;;13.40;6.85;;;;;;;;;;5029742;28;20071;-75
2021/12/12 09:18:55;;;;;;;15.68;7.63;;;;;;;;;;5029945;28;20052;-75
2021/12/12 09:21:24;;;;;;;13.05;6.97;;;;;;;;;;5013422;28;20041;-75
2021/12/12 09:24:03;;;;;;;14.25;7.10;;;;;;;;;;5026478;28;20046;-76
2021/12/12 09:26:30;;;;;;;18.52;8.15;;;;;;;;;;5009937;28;20087;-77
2021/12/12 09:29:01;;;;;;;14.60;7.28;;;;;;;;;;5009573;28;20042;-76
2021/12/12 09:31:30;;;;;;;15.63;7.10;;;;;;;;;;5026294;28;20049;-76
2021/12/12 09:33:59;;;;;;;14.57;7.38;;;;;;;;;;5015168;28;20045;-75
2021/12/12 09:36:25;;;;;;;17.77;7.45;;;;;;;;;;5019029;28;20114;-75
2021/12/12 09:39:11;;;;;;;16.00;7.75;;;;;;;;;;5037763;28;20361;-75
2021/12/12 09:41:56;;;;;;;15.60;7.47;;;;;;;;;;5042095;28;20037;-75
2021/12/12 09:44:37;;;;;;;17.30;8.23;;;;;;;;;;5021601;28;20045;-76
2021/12/12 09:47:25;;;;;;;15.20;7.80;;;;;;;;;;5038393;28;20064;-76
2021/12/12 09:53:06;;;;;;;20.02;8.70;;;;;;;;;;5011758;28;20057;-76
2021/12/12 09:55:37;;;;;;;15.80;7.57;;;;;;;;;;5038324;28;20425;-77
2021/12/12 09:58:06;;;;;;;20.75;8.35;;;;;;;;;;5038060;28;20125;-75
2021/12/12 10:00:36;;;;;;;19.00;8.48;;;;;;;;;;5021770;28;20041;-76
2021/12/12 10:03:11;;;;;;;20.53;9.33;;;;;;;;;;5021649;28;20383;-76
2021/12/12 10:05:37;;;;;;;21.13;8.80;;;;;;;;;;5049633;28;20111;-75
2021/12/12 10:08:10;;;;;;;23.52;9.27;;;;;;;;;;5049892;28;20069;-76
2021/12/12 10:10:38;;;;;;;23.75;9.70;;;;;;;;;;5049939;28;20041;-75
2021/12/12 10:13:04;;;;;;;25.85;9.70;;;;;;;;;;5032519;28;20044;-75
2021/12/12 10:15:35;;;;;;;20.73;9.38;;;;;;;;;;5049533;28;20497;-76
2021/12/12 10:18:09;;;;;;;28.15;10.73;;;;;;;;;;5032728;28;20044;-74
2021/12/12 10:20:41;;;;;;;26.27;10.00;;;;;;;;;;5033096;28;20052;-75
2021/12/12 10:23:16;;;;;;;23.17;9.95;;;;;;;;;;5049952;28;20509;-75
2021/12/12 10:25:45;;;;;;;25.15;10.48;;;;;;;;;;5049662;28;20041;-75
2021/12/12 10:28:11;;;;;;;23.13;9.07;;;;;;;;;;5033028;28;20047;-75
2021/12/12 10:30:44;;;;;;;27.08;10.68;;;;;;;;;;5050377;28;20075;-76
2021/12/12 10:33:10;;;;;;;32.17;11.18;;;;;;;;;;5050599;28;20052;-75
2021/12/12 10:35:36;;;;;;;22.98;10.32;;;;;;;;;;5033227;28;20044;-77
2021/12/12 10:38:09;;;;;;;25.65;9.70;;;;;;;;;;5033386;28;20040;-74
2021/12/12 10:40:38;;;;;;;23.20;9.85;;;;;;;;;;5049773;28;20037;-75
2021/12/12 10:43:07;;;;;;;25.38;10.77;;;;;;;;;;5049164;28;20618;-76
2021/12/12 10:45:36;;;;;;;21.20;8.90;;;;;;;;;;5049276;28;20481;-76
2021/12/12 10:48:08;;;;;;;21.10;9.75;;;;;;;;;;5048925;28;20037;-75
2021/12/12 10:51:01;;;;;;;22.70;9.57;;;;;;;;;;5048619;28;20052;-75
2021/12/12 10:53:31;;;;;;;22.15;9.68;;;;;;;;;;5048766;28;20037;-76
2021/12/12 10:56:03;;;;;;;21.65;9.35;;;;;;;;;;5049139;28;20045;-74
2021/12/12 10:58:33;;;;;;;22.27;10.18;;;;;;;;;;5049068;28;20045;-76
2021/12/12 11:01:13;;;;;;;21.80;9.48;;;;;;;;;;5032565;28;20076;-75
2021/12/12 11:03:47;;;;;;;19.42;9.50;;;;;;;;;;5048936;28;20461;-75
2021/12/12 11:06:20;;;;;;;19.35;8.27;;;;;;;;;;5048425;28;20033;-76
2021/12/12 11:08:52;;;;;;;24.30;9.38;;;;;;;;;;5048943;28;20048;-75
2021/12/12 11:11:20;;;;;;;25.40;10.57;;;;;;;;;;5048583;28;20048;-76
2021/12/12 11:13:53;;;;;;;21.70;8.98;;;;;;;;;;5048807;28;20055;-76
2021/12/12 11:16:21;;;;;;;25.48;10.35;;;;;;;;;;5048275;28;20055;-75
2021/12/12 11:18:49;;;;;;;22.10;9.25;;;;;;;;;;5048508;28;20048;-75
2021/12/12 11:21:25;;;;;;;21.63;9.38;;;;;;;;;;5048679;28;20485;-75
2021/12/12 11:23:53;;;;;;;20.35;9.55;;;;;;;;;;5048339;28;20096;-76
2021/12/12 11:26:34;;;;;;;20.17;8.88;;;;;;;;;;5048342;28;20041;-76
2021/12/12 11:29:03;;;;;;;25.30;9.75;;;;;;;;;;5048037;28;20095;-75
2021/12/12 11:31:35;;;;;;;20.92;9.40;;;;;;;;;;5048210;28;20052;-75
2021/12/12 11:34:02;;;;;;;22.63;9.50;;;;;;;;;;5048299;28;20078;-76
2021/12/12 11:36:30;;;;;;;19.50;8.68;;;;;;;;;;5048123;28;20136;-76
2021/12/12 11:38:59;;;;;;;17.73;8.27;;;;;;;;;;5048327;28;20132;-75
2021/12/12 11:41:25;;;;;;;22.67;9.95;;;;;;;;;;5047665;28;20041;-75
2021/12/12 11:44:02;;;;;;;19.98;8.77;;;;;;;;;;5047939;28;20493;-75
2021/12/12 11:46:36;;;;;;;20.58;8.73;;;;;;;;;;5048510;28;20045;-77
2021/12/12 11:49:11;;;;;;;26.60;9.45;;;;;;;;;;5048188;28;20459;-76
2021/12/12 11:51:50;;;;;;;19.00;8.05;;;;;;;;;;5048058;28;20045;-76
2021/12/12 11:54:35;;;;;;;21.00;8.52;;;;;;;;;;5047989;28;20098;-74
2021/12/12 11:57:06;;;;;;;20.95;8.52;;;;;;;;;;5047613;28;20048;-76
2021/12/12 11:59:32;;;;;;;;;;;;;;;;;;5048029;28;20115;-75
2021/12/12 12:02:04;;;;;;;16.05;7.85;;;;;;;;;;5030980;28;20324;-75
2021/12/12 12:04:33;;;;;;;17.98;8.00;;;;;;;;;;5047286;28;20048;-75
2021/12/12 12:07:15;;;;;;;17.13;7.85;;;;;;;;;;5047622;28;20603;-76
2021/12/12 12:09:41;;;;;;;18.92;8.45;;;;;;;;;;5047594;28;20049;-76
2021/12/12 12:12:17;;;;;;;20.17;8.48;;;;;;;;;;5048060;28;20619;-76
2021/12/12 12:15:02;;;;;;;23.33;9.52;;;;;;;;;;5048256;28;20045;-75
2021/12/12 12:17:47;;;;;;;19.58;8.63;;;;;;;;;;5048177;28;20049;-76
2021/12/12 12:20:19;;;;;;;21.10;9.02;;;;;;;;;;5047441;28;20045;-76
2021/12/12 12:23:00;;;;;;;18.38;9.02;;;;;;;;;;5047891;28;20103;-75
2021/12/12 12:26:50;;;;;;;18.30;8.80;;;;;;;;;;5033976;28;20044;-75
2021/12/12 12:28:25;;;;;;;18.38;8.70;;;;;;;;;;5049660;28;20135;-76
2021/12/12 12:31:01;;;;;;;17.98;8.63;;;;;;;;;;5033768;28;20052;-76
2021/12/12 12:33:36;;;;;;;19.83;8.80;;;;;;;;;;5034046;28;20052;-76
2021/12/12 12:36:21;;;;;;;18.75;8.98;;;;;;;;;;5050438;28;20114;-75
2021/12/12 12:39:06;;;;;;;18.40;8.73;;;;;;;;;;5050251;28;20417;-76
2021/12/12 12:41:51;;;;;;;18.30;8.80;;;;;;;;;;5049599;28;20036;-75
2021/12/12 12:44:36;;;;;;;18.20;8.07;;;;;;;;;;5050170;28;20040;-76
2021/12/12 12:47:21;;;;;;;16.20;7.80;;;;;;;;;;5033110;28;20127;-76
2021/12/12 12:49:50;;;;;;;15.05;7.95;;;;;;;;;;5050179;28;20036;-75
2021/12/12 12:52:29;;;;;;;15.85;7.68;;;;;;;;;;5033218;28;20036;-72
2021/12/12 12:55:14;;;;;;;16.45;7.03;;;;;;;;;;5033685;28;20051;-76
2021/12/12 12:57:42;;;;;;;16.98;7.85;;;;;;;;;;5033750;28;20623;-75
2021/12/12 13:00:16;;;;;;;16.05;7.63;;;;;;;;;;5033486;28;20044;-76
2021/12/12 13:03:01;;;;;;;15.13;7.38;;;;;;;;;;5033365;28;20037;-74
2021/12/12 13:05:36;;;;;;;15.80;7.82;;;;;;;;;;5033152;28;20523;-75
2021/12/12 13:08:31;;;;;;;15.65;7.82;;;;;;;;;;5033449;28;20083;-76
2021/12/12 13:11:00;;;;;;;16.80;7.47;;;;;;;;;;5049973;28;20131;-76
2021/12/12 13:13:30;;;;;;;14.70;7.50;;;;;;;;;;5049419;28;20090;-76
2021/12/12 13:16:00;;;;;;;16.58;8.05;;;;;;;;;;5032932;28;20595;-75
2021/12/12 13:18:38;;;;;;;13.55;7.30;;;;;;;;;;5049958;28;20385;-75
2021/12/12 13:21:12;;;;;;;15.80;8.43;;;;;;;;;;5049842;28;20406;-76
2021/12/12 13:23:47;;;;;;;15.23;7.20;;;;;;;;;;5046413;28;20056;-75
2021/12/12 13:26:15;;;;;;;15.00;7.75;;;;;;;;;;5046477;28;20041;-74
2021/12/12 13:29:14;;;;;;;13.10;6.88;;;;;;;;;;5045681;28;20045;-76
2021/12/12 13:31:57;;;;;;;16.38;7.47;;;;;;;;;;4976774;28;20064;-76
2021/12/12 13:34:37;;;;;;;14.30;7.18;;;;;;;;;;5046472;28;20044;-76
2021/12/12 13:37:06;;;;;;;14.57;7.30;;;;;;;;;;5046622;28;20041;-76
2021/12/12 13:39:53;;;;;;;14.98;6.95;;;;;;;;;;5046745;28;20041;-73
2021/12/12 13:42:19;;;;;;;13.30;6.80;;;;;;;;;;5046118;28;20052;-75
2021/12/12 13:44:45;;;;;;;12.15;7.03;;;;;;;;;;5046009;28;20048;-76
2021/12/12 13:47:26;;;;;;;13.07;8.05;;;;;;;;;;5046191;28;20520;-76
2021/12/12 13:49:59;;;;;;;14.75;7.88;;;;;;;;;;5046318;28;20037;-75
2021/12/12 13:52:31;;;;;;;15.23;7.57;;;;;;;;;;5046057;28;20045;-75
2021/12/12 13:55:23;;;;;;;12.88;6.60;;;;;;;;;;5046268;28;20044;-74
2021/12/12 13:57:52;;;;;;;14.52;7.53;;;;;;;;;;4992879;28;20117;-75
2021/12/12 14:00:21;;;;;;;13.75;7.32;;;;;;;;;;5046337;28;20048;-76
2021/12/12 14:02:50;;;;;;;12.02;6.85;;;;;;;;;;5046049;28;20037;-74
2021/12/12 14:05:21;;;;;;;12.98;7.35;;;;;;;;;;5045752;28;20386;-76
2021/12/12 14:07:53;;;;;;;12.63;6.93;;;;;;;;;;5046592;28;20073;-75
2021/12/12 14:10:34;;;;;;;13.75;6.20;;;;;;;;;;5046331;28;20041;-75
2021/12/12 14:13:17;;;;;;;11.13;6.45;;;;;;;;;;5046187;28;20048;-76
2021/12/12 14:15:46;;;;;;;10.65;5.82;;;;;;;;;;5046571;28;20045;-75
2021/12/12 14:18:12;;;;;;;13.55;7.10;;;;;;;;;;5045810;28;20040;-76
2021/12/12 14:20:38;;;;;;;10.50;6.47;;;;;;;;;;5045764;28;20045;-76
2021/12/12 14:23:06;;;;;;;13.77;6.63;;;;;;;;;;5049083;28;20386;-75
2021/12/12 14:25:34;;;;;;;10.90;6.40;;;;;;;;;;5050745;28;20578;-76
2021/12/12 14:28:01;;;;;;;11.60;6.05;;;;;;;;;;5052405;28;20071;-75
2021/12/12 14:30:30;;;;;;;11.85;6.50;;;;;;;;;;5053034;28;20049;-75
2021/12/12 14:33:04;;;;;;;13.15;6.18;;;;;;;;;;5036277;28;20049;-75
2021/12/12 14:35:33;;;;;;;10.70;6.20;;;;;;;;;;5052433;28;20050;-76
2021/12/12 14:38:00;;;;;;;9.40;5.90;;;;;;;;;;5036111;28;20033;-75
2021/12/12 14:40:28;;;;;;;10.20;6.05;;;;;;;;;;5052251;28;20072;-76
2021/12/12 14:43:02;;;;;;;10.68;5.97;;;;;;;;;;5035854;28;20399;-75
2021/12/12 14:45:40;;;;;;;9.63;5.53;;;;;;;;;;5052874;28;20072;-76
2021/12/12 14:48:08;;;;;;;11.43;5.63;;;;;;;;;;5035966;28;20044;-76
2021/12/12 14:50:41;;;;;;;11.00;6.22;;;;;;;;;;5052575;28;20127;-76
2021/12/12 14:53:09;;;;;;;10.57;5.82;;;;;;;;;;5035355;28;20402;-75
2021/12/12 14:55:40;;;;;;;10.25;5.75;;;;;;;;;;5052504;28;20594;-76
2021/12/12 14:58:11;;;;;;;8.43;4.93;;;;;;;;;;5052291;28;20039;-76
2021/12/12 15:00:47;;;;;;;9.68;5.53;;;;;;;;;;5052346;28;20040;-76
2021/12/12 15:03:19;;;;;;;8.65;5.32;;;;;;;;;;5036135;28;20119;-75
2021/12/12 15:05:49;;;;;;;8.85;5.25;;;;;;;;;;5052362;28;20083;-76